sensor_id;sensor_type;location;lat;lon;timestamp;P1;durP1;ratioP1;P2;durP2;ratioP2
77457;SDS011;66541;49.346;8.648;2023-05-10T00:02:18;1.40;;;0.32;;
77457;SDS011;66541;49.346;8.648;2023-05-10T00:04:44;1.00;;;0.20;;
77457;SDS011;66541;49.346;8.648;2023-05-10T00:07:11;4.93;;;0.28;;
77457;SDS011;66541;49.346;8.648;2023-05-10T00:09:37;3.40;;;0.10;;
77457;SDS011;66541;49.346;8.648;2023-05-10T00:12:02;1.08;;;0.20;;
77457;SDS011;66541;49.346;8.648;2023-05-10T00:14:27;1.10;;;0.10;;
77457;SDS011;66541;49.346;8.648;2023-05-10T00:16:53;0.93;;;0.10;;
77457;SDS011;66541;49.346;8.648;2023-05-10T00:19:18;1.67;;;0.10;;
77457;SDS011;66541;49.346;8.648;2023-05-10T00:21:43;2.75;;;0.20;;
77457;SDS011;66541;49.346;8.648;2023-05-10T00:24:08;1.30;;;0.20;;
77457;SDS011;66541;49.346;8.648;2023-05-10T00:26:34;0.70;;;0.10;;
77457;SDS011;66541;49.346;8.648;2023-05-10T00:28:59;3.00;;;0.35;;
77457;SDS011;66541;49.346;8.648;2023-05-10T00:31:25;0.82;;;0.13;;
77457;SDS011;66541;49.346;8.648;2023-05-10T00:33:50;1.33;;;0.15;;
77457;SDS011;66541;49.346;8.648;2023-05-10T00:36:15;1.95;;;0.30;;
77457;SDS011;66541;49.346;8.648;2023-05-10T00:38:41;1.05;;;0.20;;
77457;SDS011;66541;49.346;8.648;2023-05-10T00:41:06;1.35;;;0.10;;
77457;SDS011;66541;49.346;8.648;2023-05-10T00:43:31;0.73;;;0.10;;
77457;SDS011;66541;49.346;8.648;2023-05-10T00:45:57;2.80;;;0.30;;
77457;SDS011;66541;49.346;8.648;2023-05-10T00:48:22;1.77;;;0.20;;
77457;SDS011;66541;49.346;8.648;2023-05-10T00:50:48;3.20;;;0.40;;
77457;SDS011;66541;49.346;8.648;2023-05-10T00:53:13;2.67;;;0.10;;
77457;SDS011;66541;49.346;8.648;2023-05-10T00:55:39;2.20;;;0.20;;
77457;SDS011;66541;49.346;8.648;2023-05-10T00:58:04;2.70;;;0.10;;
77457;SDS011;66541;49.346;8.648;2023-05-10T01:00:29;1.55;;;0.20;;
77457;SDS011;66541;49.346;8.648;2023-05-10T01:02:55;1.67;;;0.10;;
77457;SDS011;66541;49.346;8.648;2023-05-10T01:05:20;2.38;;;0.40;;
77457;SDS011;66541;49.346;8.648;2023-05-10T01:07:46;1.60;;;0.20;;
77457;SDS011;66541;49.346;8.648;2023-05-10T01:10:11;2.80;;;0.25;;
77457;SDS011;66541;49.346;8.648;2023-05-10T01:12:37;1.73;;;0.30;;
77457;SDS011;66541;49.346;8.648;2023-05-10T01:15:07;1.08;;;0.20;;
77457;SDS011;66541;49.346;8.648;2023-05-10T01:17:33;3.20;;;0.35;;
77457;SDS011;66541;49.346;8.648;2023-05-10T01:20:00;2.08;;;0.30;;
77457;SDS011;66541;49.346;8.648;2023-05-10T01:38:42;2.13;;;0.40;;
77457;SDS011;66541;49.346;8.648;2023-05-10T01:43:48;2.67;;;0.50;;
77457;SDS011;66541;49.346;8.648;2023-05-10T01:46:19;3.47;;;0.40;;
77457;SDS011;66541;49.346;8.648;2023-05-10T01:48:54;2.50;;;0.30;;
77457;SDS011;66541;49.346;8.648;2023-05-10T01:51:23;3.55;;;0.47;;
77457;SDS011;66541;49.346;8.648;2023-05-10T01:53:49;1.33;;;0.30;;
77457;SDS011;66541;49.346;8.648;2023-05-10T01:56:16;1.15;;;0.22;;
77457;SDS011;66541;49.346;8.648;2023-05-10T01:58:46;1.40;;;0.30;;
77457;SDS011;66541;49.346;8.648;2023-05-10T02:01:13;2.10;;;0.30;;
77457;SDS011;66541;49.346;8.648;2023-05-10T02:03:38;1.52;;;0.30;;
77457;SDS011;66541;49.346;8.648;2023-05-10T02:06:05;2.70;;;0.20;;
77457;SDS011;66541;49.346;8.648;2023-05-10T02:08:32;1.48;;;0.40;;
77457;SDS011;66541;49.346;8.648;2023-05-10T02:10:58;2.53;;;0.38;;
77457;SDS011;66541;49.346;8.648;2023-05-10T02:13:25;1.83;;;0.32;;
77457;SDS011;66541;49.346;8.648;2023-05-10T02:15:51;1.77;;;0.17;;
77457;SDS011;66541;49.346;8.648;2023-05-10T02:18:17;2.17;;;0.30;;
77457;SDS011;66541;49.346;8.648;2023-05-10T02:20:43;3.38;;;0.30;;
77457;SDS011;66541;49.346;8.648;2023-05-10T02:23:10;2.28;;;0.40;;
77457;SDS011;66541;49.346;8.648;2023-05-10T02:25:36;2.03;;;0.30;;
77457;SDS011;66541;49.346;8.648;2023-05-10T02:28:03;1.92;;;0.28;;
77457;SDS011;66541;49.346;8.648;2023-05-10T02:30:31;2.72;;;0.60;;
77457;SDS011;66541;49.346;8.648;2023-05-10T02:32:57;1.88;;;0.30;;
77457;SDS011;66541;49.346;8.648;2023-05-10T02:35:23;2.63;;;0.40;;
77457;SDS011;66541;49.346;8.648;2023-05-10T02:37:50;1.73;;;0.30;;
77457;SDS011;66541;49.346;8.648;2023-05-10T02:40:16;1.42;;;0.30;;
77457;SDS011;66541;49.346;8.648;2023-05-10T02:42:42;1.90;;;0.40;;
77457;SDS011;66541;49.346;8.648;2023-05-10T02:45:13;2.10;;;0.52;;
77457;SDS011;66541;49.346;8.648;2023-05-10T02:47:46;2.10;;;0.40;;
77457;SDS011;66541;49.346;8.648;2023-05-10T02:50:11;3.17;;;0.55;;
77457;SDS011;66541;49.346;8.648;2023-05-10T02:52:38;3.92;;;0.50;;
77457;SDS011;66541;49.346;8.648;2023-05-10T02:55:06;3.90;;;0.65;;
77457;SDS011;66541;49.346;8.648;2023-05-10T02:57:34;3.40;;;0.50;;
77457;SDS011;66541;49.346;8.648;2023-05-10T03:00:03;2.92;;;0.30;;
77457;SDS011;66541;49.346;8.648;2023-05-10T03:02:28;4.55;;;0.73;;
77457;SDS011;66541;49.346;8.648;2023-05-10T03:04:55;4.93;;;0.60;;
77457;SDS011;66541;49.346;8.648;2023-05-10T03:07:20;5.90;;;0.68;;
77457;SDS011;66541;49.346;8.648;2023-05-10T03:09:46;1.83;;;0.45;;
77457;SDS011;66541;49.346;8.648;2023-05-10T03:20:33;2.38;;;0.60;;
77457;SDS011;66541;49.346;8.648;2023-05-10T03:23:10;5.20;;;0.50;;
77457;SDS011;66541;49.346;8.648;2023-05-10T03:25:42;3.90;;;0.68;;
77457;SDS011;66541;49.346;8.648;2023-05-10T03:28:08;3.72;;;0.57;;
77457;SDS011;66541;49.346;8.648;2023-05-10T03:30:34;4.13;;;1.02;;
77457;SDS011;66541;49.346;8.648;2023-05-10T03:33:04;2.13;;;0.50;;
77457;SDS011;66541;49.346;8.648;2023-05-10T03:35:30;3.03;;;0.63;;
77457;SDS011;66541;49.346;8.648;2023-05-10T03:37:55;3.17;;;0.60;;
77457;SDS011;66541;49.346;8.648;2023-05-10T03:40:21;4.60;;;0.70;;
77457;SDS011;66541;49.346;8.648;2023-05-10T03:42:46;3.17;;;0.60;;
77457;SDS011;66541;49.346;8.648;2023-05-10T03:45:11;4.78;;;0.63;;
77457;SDS011;66541;49.346;8.648;2023-05-10T03:47:36;4.15;;;0.98;;
77457;SDS011;66541;49.346;8.648;2023-05-10T03:50:02;2.92;;;0.50;;
77457;SDS011;66541;49.346;8.648;2023-05-10T03:52:27;3.08;;;0.63;;
77457;SDS011;66541;49.346;8.648;2023-05-10T03:54:53;3.22;;;1.13;;
77457;SDS011;66541;49.346;8.648;2023-05-10T03:57:18;3.28;;;0.73;;
77457;SDS011;66541;49.346;8.648;2023-05-10T03:59:43;3.00;;;0.80;;
77457;SDS011;66541;49.346;8.648;2023-05-10T04:02:09;4.05;;;0.80;;
77457;SDS011;66541;49.346;8.648;2023-05-10T04:04:35;3.47;;;1.02;;
77457;SDS011;66541;49.346;8.648;2023-05-10T04:07:00;5.20;;;1.02;;
77457;SDS011;66541;49.346;8.648;2023-05-10T04:09:25;3.65;;;0.60;;
77457;SDS011;66541;49.346;8.648;2023-05-10T04:11:51;3.28;;;0.70;;
77457;SDS011;66541;49.346;8.648;2023-05-10T04:14:16;3.10;;;0.75;;
77457;SDS011;66541;49.346;8.648;2023-05-10T04:16:41;3.08;;;0.70;;
77457;SDS011;66541;49.346;8.648;2023-05-10T04:19:07;4.65;;;1.17;;
77457;SDS011;66541;49.346;8.648;2023-05-10T04:21:32;4.60;;;0.85;;
77457;SDS011;66541;49.346;8.648;2023-05-10T04:23:57;4.35;;;1.00;;
77457;SDS011;66541;49.346;8.648;2023-05-10T04:26:23;3.22;;;0.73;;
77457;SDS011;66541;49.346;8.648;2023-05-10T04:28:49;4.88;;;1.00;;
77457;SDS011;66541;49.346;8.648;2023-05-10T04:31:15;3.88;;;0.95;;
77457;SDS011;66541;49.346;8.648;2023-05-10T04:33:40;6.20;;;1.35;;
77457;SDS011;66541;49.346;8.648;2023-05-10T04:36:05;4.80;;;1.30;;
77457;SDS011;66541;49.346;8.648;2023-05-10T04:38:31;4.22;;;1.08;;
77457;SDS011;66541;49.346;8.648;2023-05-10T04:41:09;4.88;;;0.90;;
77457;SDS011;66541;49.346;8.648;2023-05-10T04:43:38;3.63;;;0.90;;
77457;SDS011;66541;49.346;8.648;2023-05-10T04:46:03;4.50;;;1.02;;
77457;SDS011;66541;49.346;8.648;2023-05-10T04:48:29;5.07;;;1.08;;
77457;SDS011;66541;49.346;8.648;2023-05-10T04:50:54;3.70;;;0.70;;
77457;SDS011;66541;49.346;8.648;2023-05-10T04:53:20;3.22;;;0.90;;
77457;SDS011;66541;49.346;8.648;2023-05-10T04:55:45;4.78;;;1.25;;
77457;SDS011;66541;49.346;8.648;2023-05-10T04:58:11;5.07;;;1.23;;
77457;SDS011;66541;49.346;8.648;2023-05-10T05:00:36;4.38;;;1.40;;
77457;SDS011;66541;49.346;8.648;2023-05-10T05:03:02;6.13;;;1.40;;
77457;SDS011;66541;49.346;8.648;2023-05-10T05:05:27;5.13;;;1.38;;
77457;SDS011;66541;49.346;8.648;2023-05-10T05:07:52;4.05;;;1.10;;
77457;SDS011;66541;49.346;8.648;2023-05-10T05:10:18;8.90;;;2.50;;
77457;SDS011;66541;49.346;8.648;2023-05-10T05:12:43;6.60;;;1.95;;
77457;SDS011;66541;49.346;8.648;2023-05-10T05:15:08;4.82;;;1.33;;
77457;SDS011;66541;49.346;8.648;2023-05-10T05:17:34;4.88;;;1.25;;
77457;SDS011;66541;49.346;8.648;2023-05-10T05:20:00;5.55;;;1.30;;
77457;SDS011;66541;49.346;8.648;2023-05-10T05:22:25;5.20;;;1.17;;
77457;SDS011;66541;49.346;8.648;2023-05-10T05:24:56;4.80;;;1.05;;
77457;SDS011;66541;49.346;8.648;2023-05-10T05:27:23;4.85;;;1.40;;
77457;SDS011;66541;49.346;8.648;2023-05-10T05:29:52;4.85;;;1.38;;
77457;SDS011;66541;49.346;8.648;2023-05-10T05:32:17;6.07;;;1.40;;
77457;SDS011;66541;49.346;8.648;2023-05-10T05:34:46;5.35;;;1.50;;
77457;SDS011;66541;49.346;8.648;2023-05-10T05:37:15;6.20;;;1.25;;
77457;SDS011;66541;49.346;8.648;2023-05-10T05:39:41;9.30;;;1.80;;
77457;SDS011;66541;49.346;8.648;2023-05-10T05:42:07;5.68;;;1.70;;
77457;SDS011;66541;49.346;8.648;2023-05-10T05:44:33;5.32;;;1.45;;
77457;SDS011;66541;49.346;8.648;2023-05-10T05:46:58;5.28;;;1.35;;
77457;SDS011;66541;49.346;8.648;2023-05-10T05:49:23;6.53;;;1.83;;
77457;SDS011;66541;49.346;8.648;2023-05-10T05:51:48;4.55;;;1.48;;
77457;SDS011;66541;49.346;8.648;2023-05-10T05:54:15;6.25;;;1.90;;
77457;SDS011;66541;49.346;8.648;2023-05-10T05:56:40;5.50;;;1.58;;
77457;SDS011;66541;49.346;8.648;2023-05-10T05:59:05;4.53;;;1.30;;
77457;SDS011;66541;49.346;8.648;2023-05-10T06:01:31;4.78;;;1.45;;
77457;SDS011;66541;49.346;8.648;2023-05-10T06:03:56;5.50;;;1.40;;
77457;SDS011;66541;49.346;8.648;2023-05-10T06:06:24;5.85;;;1.73;;
77457;SDS011;66541;49.346;8.648;2023-05-10T06:08:49;6.95;;;1.60;;
77457;SDS011;66541;49.346;8.648;2023-05-10T06:11:14;5.95;;;1.90;;
77457;SDS011;66541;49.346;8.648;2023-05-10T06:13:40;8.18;;;2.30;;
77457;SDS011;66541;49.346;8.648;2023-05-10T06:16:05;5.43;;;1.67;;
77457;SDS011;66541;49.346;8.648;2023-05-10T06:18:30;6.85;;;1.95;;
77457;SDS011;66541;49.346;8.648;2023-05-10T06:20:56;6.28;;;2.15;;
77457;SDS011;66541;49.346;8.648;2023-05-10T06:23:22;5.40;;;1.70;;
77457;SDS011;66541;49.346;8.648;2023-05-10T06:25:47;6.38;;;2.13;;
77457;SDS011;66541;49.346;8.648;2023-05-10T06:28:13;7.05;;;1.88;;
77457;SDS011;66541;49.346;8.648;2023-05-10T06:30:38;6.20;;;2.10;;
77457;SDS011;66541;49.346;8.648;2023-05-10T06:33:03;7.47;;;1.98;;
77457;SDS011;66541;49.346;8.648;2023-05-10T06:35:28;7.93;;;2.30;;
77457;SDS011;66541;49.346;8.648;2023-05-10T06:37:58;7.53;;;1.70;;
77457;SDS011;66541;49.346;8.648;2023-05-10T06:40:23;5.88;;;1.80;;
77457;SDS011;66541;49.346;8.648;2023-05-10T06:42:51;6.97;;;1.83;;
77457;SDS011;66541;49.346;8.648;2023-05-10T06:45:16;6.38;;;1.73;;
77457;SDS011;66541;49.346;8.648;2023-05-10T06:47:42;6.65;;;2.47;;
77457;SDS011;66541;49.346;8.648;2023-05-10T06:50:08;6.93;;;2.10;;
77457;SDS011;66541;49.346;8.648;2023-05-10T06:52:34;5.80;;;1.83;;
77457;SDS011;66541;49.346;8.648;2023-05-10T06:54:59;5.45;;;1.67;;
77457;SDS011;66541;49.346;8.648;2023-05-10T06:57:25;6.13;;;1.67;;
77457;SDS011;66541;49.346;8.648;2023-05-10T06:59:50;5.25;;;1.52;;
77457;SDS011;66541;49.346;8.648;2023-05-10T07:02:20;7.18;;;1.50;;
77457;SDS011;66541;49.346;8.648;2023-05-10T07:04:46;7.10;;;1.83;;
77457;SDS011;66541;49.346;8.648;2023-05-10T07:07:12;5.78;;;1.65;;
77457;SDS011;66541;49.346;8.648;2023-05-10T07:09:38;5.88;;;1.48;;
77457;SDS011;66541;49.346;8.648;2023-05-10T07:12:03;6.15;;;2.17;;
77457;SDS011;66541;49.346;8.648;2023-05-10T07:14:29;7.82;;;1.67;;
77457;SDS011;66541;49.346;8.648;2023-05-10T07:16:54;6.72;;;1.60;;
77457;SDS011;66541;49.346;8.648;2023-05-10T07:19:20;7.05;;;1.60;;
77457;SDS011;66541;49.346;8.648;2023-05-10T07:21:45;7.07;;;1.63;;
77457;SDS011;66541;49.346;8.648;2023-05-10T07:24:10;4.60;;;1.30;;
77457;SDS011;66541;49.346;8.648;2023-05-10T07:26:36;7.95;;;1.83;;
77457;SDS011;66541;49.346;8.648;2023-05-10T07:29:01;6.60;;;1.55;;
77457;SDS011;66541;49.346;8.648;2023-05-10T07:31:27;5.55;;;1.30;;
77457;SDS011;66541;49.346;8.648;2023-05-10T07:33:52;4.75;;;1.38;;
77457;SDS011;66541;49.346;8.648;2023-05-10T07:36:18;4.97;;;1.20;;
77457;SDS011;66541;49.346;8.648;2023-05-10T07:38:43;4.68;;;1.20;;
77457;SDS011;66541;49.346;8.648;2023-05-10T07:41:09;6.32;;;1.13;;
77457;SDS011;66541;49.346;8.648;2023-05-10T07:43:34;5.22;;;1.48;;
77457;SDS011;66541;49.346;8.648;2023-05-10T07:45:59;5.90;;;1.27;;
77457;SDS011;66541;49.346;8.648;2023-05-10T07:48:25;3.38;;;0.82;;
77457;SDS011;66541;49.346;8.648;2023-05-10T07:50:50;4.22;;;0.93;;
77457;SDS011;66541;49.346;8.648;2023-05-10T07:53:16;4.47;;;1.05;;
77457;SDS011;66541;49.346;8.648;2023-05-10T07:55:41;5.88;;;1.05;;
77457;SDS011;66541;49.346;8.648;2023-05-10T07:58:07;5.18;;;1.10;;
77457;SDS011;66541;49.346;8.648;2023-05-10T08:00:32;4.70;;;1.08;;
77457;SDS011;66541;49.346;8.648;2023-05-10T08:02:57;3.83;;;0.93;;
77457;SDS011;66541;49.346;8.648;2023-05-10T08:05:23;4.68;;;1.00;;
77457;SDS011;66541;49.346;8.648;2023-05-10T08:07:48;3.33;;;0.82;;
77457;SDS011;66541;49.346;8.648;2023-05-10T08:10:13;3.88;;;0.70;;
77457;SDS011;66541;49.346;8.648;2023-05-10T08:12:39;6.50;;;0.98;;
77457;SDS011;66541;49.346;8.648;2023-05-10T08:15:04;5.00;;;1.02;;
77457;SDS011;66541;49.346;8.648;2023-05-10T08:17:30;4.18;;;0.82;;
77457;SDS011;66541;49.346;8.648;2023-05-10T08:19:55;4.97;;;1.05;;
77457;SDS011;66541;49.346;8.648;2023-05-10T08:22:21;3.72;;;0.77;;
77457;SDS011;66541;49.346;8.648;2023-05-10T08:24:46;2.95;;;0.70;;
77457;SDS011;66541;49.346;8.648;2023-05-10T08:27:11;4.07;;;1.10;;
77457;SDS011;66541;49.346;8.648;2023-05-10T08:29:37;3.05;;;0.60;;
77457;SDS011;66541;49.346;8.648;2023-05-10T08:32:02;3.70;;;0.70;;
77457;SDS011;66541;49.346;8.648;2023-05-10T08:34:28;2.95;;;1.15;;
77457;SDS011;66541;49.346;8.648;2023-05-10T08:36:53;4.47;;;0.85;;
77457;SDS011;66541;49.346;8.648;2023-05-10T08:39:18;3.55;;;0.82;;
77457;SDS011;66541;49.346;8.648;2023-05-10T08:41:44;3.45;;;0.93;;
77457;SDS011;66541;49.346;8.648;2023-05-10T08:44:09;2.70;;;0.65;;
77457;SDS011;66541;49.346;8.648;2023-05-10T08:46:35;5.78;;;0.80;;
77457;SDS011;66541;49.346;8.648;2023-05-10T08:49:03;4.93;;;0.70;;
77457;SDS011;66541;49.346;8.648;2023-05-10T08:51:29;3.67;;;0.70;;
77457;SDS011;66541;49.346;8.648;2023-05-10T08:53:58;6.05;;;1.00;;
77457;SDS011;66541;49.346;8.648;2023-05-10T08:56:23;3.58;;;1.10;;
77457;SDS011;66541;49.346;8.648;2023-05-10T08:58:49;3.53;;;0.77;;
77457;SDS011;66541;49.346;8.648;2023-05-10T09:01:15;2.70;;;0.60;;
77457;SDS011;66541;49.346;8.648;2023-05-10T09:03:41;3.75;;;0.60;;
77457;SDS011;66541;49.346;8.648;2023-05-10T09:06:07;2.33;;;0.40;;
77457;SDS011;66541;49.346;8.648;2023-05-10T09:08:33;1.92;;;0.38;;
77457;SDS011;66541;49.346;8.648;2023-05-10T09:10:58;2.17;;;0.55;;
77457;SDS011;66541;49.346;8.648;2023-05-10T09:13:25;2.58;;;0.50;;
77457;SDS011;66541;49.346;8.648;2023-05-10T09:15:51;1.55;;;0.32;;
77457;SDS011;66541;49.346;8.648;2023-05-10T09:18:17;2.83;;;0.70;;
77457;SDS011;66541;49.346;8.648;2023-05-10T09:20:42;3.00;;;0.45;;
77457;SDS011;66541;49.346;8.648;2023-05-10T09:23:08;2.00;;;0.43;;
77457;SDS011;66541;49.346;8.648;2023-05-10T09:25:33;1.73;;;0.32;;
77457;SDS011;66541;49.346;8.648;2023-05-10T09:27:59;1.88;;;0.30;;
77457;SDS011;66541;49.346;8.648;2023-05-10T09:30:25;1.88;;;0.55;;
77457;SDS011;66541;49.346;8.648;2023-05-10T09:32:51;1.58;;;0.40;;
77457;SDS011;66541;49.346;8.648;2023-05-10T09:35:18;2.42;;;0.60;;
77457;SDS011;66541;49.346;8.648;2023-05-10T09:37:48;1.45;;;0.40;;
77457;SDS011;66541;49.346;8.648;2023-05-10T09:40:19;2.45;;;0.45;;
77457;SDS011;66541;49.346;8.648;2023-05-10T09:42:52;2.00;;;0.40;;
77457;SDS011;66541;49.346;8.648;2023-05-10T09:45:20;2.70;;;0.40;;
77457;SDS011;66541;49.346;8.648;2023-05-10T09:47:46;2.13;;;0.20;;
77457;SDS011;66541;49.346;8.648;2023-05-10T09:50:12;1.55;;;0.40;;
77457;SDS011;66541;49.346;8.648;2023-05-10T09:55:46;2.25;;;0.40;;
77457;SDS011;66541;49.346;8.648;2023-05-10T09:58:11;2.20;;;0.30;;
77457;SDS011;66541;49.346;8.648;2023-05-10T10:00:38;1.30;;;0.30;;
77457;SDS011;66541;49.346;8.648;2023-05-10T10:03:05;2.88;;;0.40;;
77457;SDS011;66541;49.346;8.648;2023-05-10T10:05:32;1.42;;;0.35;;
77457;SDS011;66541;49.346;8.648;2023-05-10T10:07:58;2.67;;;0.50;;
77457;SDS011;66541;49.346;8.648;2023-05-10T10:10:25;3.13;;;0.40;;
77457;SDS011;66541;49.346;8.648;2023-05-10T10:12:51;1.65;;;0.30;;
77457;SDS011;66541;49.346;8.648;2023-05-10T10:15:16;1.17;;;0.22;;
77457;SDS011;66541;49.346;8.648;2023-05-10T10:17:42;2.65;;;0.57;;
77457;SDS011;66541;49.346;8.648;2023-05-10T10:20:08;4.00;;;0.30;;
77457;SDS011;66541;49.346;8.648;2023-05-10T10:22:34;1.35;;;0.20;;
77457;SDS011;66541;49.346;8.648;2023-05-10T10:24:59;2.10;;;0.30;;
77457;SDS011;66541;49.346;8.648;2023-05-10T10:27:33;2.47;;;0.25;;
77457;SDS011;66541;49.346;8.648;2023-05-10T10:30:10;1.42;;;0.50;;
77457;SDS011;66541;49.346;8.648;2023-05-10T10:36:01;2.00;;;0.28;;
77457;SDS011;66541;49.346;8.648;2023-05-10T10:41:27;2.05;;;0.28;;
77457;SDS011;66541;49.346;8.648;2023-05-10T10:47:31;0.82;;;0.20;;
77457;SDS011;66541;49.346;8.648;2023-05-10T10:54:56;0.50;;;0.10;;
77457;SDS011;66541;49.346;8.648;2023-05-10T10:59:51;0.70;;;0.20;;
77457;SDS011;66541;49.346;8.648;2023-05-10T11:02:32;1.65;;;0.20;;
77457;SDS011;66541;49.346;8.648;2023-05-10T11:04:59;0.80;;;0.20;;
77457;SDS011;66541;49.346;8.648;2023-05-10T11:07:25;1.27;;;0.20;;
77457;SDS011;66541;49.346;8.648;2023-05-10T11:09:51;2.15;;;0.60;;
77457;SDS011;66541;49.346;8.648;2023-05-10T11:12:16;0.82;;;0.20;;
77457;SDS011;66541;49.346;8.648;2023-05-10T11:14:42;0.75;;;0.20;;
77457;SDS011;66541;49.346;8.648;2023-05-10T11:20:09;0.88;;;0.13;;
77457;SDS011;66541;49.346;8.648;2023-05-10T11:22:50;2.28;;;0.20;;
77457;SDS011;66541;49.346;8.648;2023-05-10T11:25:16;3.45;;;0.20;;
77457;SDS011;66541;49.346;8.648;2023-05-10T11:27:42;0.80;;;0.10;;
77457;SDS011;66541;49.346;8.648;2023-05-10T11:30:09;2.47;;;0.20;;
77457;SDS011;66541;49.346;8.648;2023-05-10T11:32:36;0.90;;;0.10;;
77457;SDS011;66541;49.346;8.648;2023-05-10T11:35:09;1.70;;;0.25;;
77457;SDS011;66541;49.346;8.648;2023-05-10T11:37:35;1.60;;;0.20;;
77457;SDS011;66541;49.346;8.648;2023-05-10T11:40:01;2.47;;;0.20;;
77457;SDS011;66541;49.346;8.648;2023-05-10T11:42:27;1.08;;;0.10;;
77457;SDS011;66541;49.346;8.648;2023-05-10T11:44:53;2.58;;;0.35;;
77457;SDS011;66541;49.346;8.648;2023-05-10T11:47:18;1.33;;;0.25;;
77457;SDS011;66541;49.346;8.648;2023-05-10T11:49:44;1.23;;;0.30;;
77457;SDS011;66541;49.346;8.648;2023-05-10T11:52:09;2.15;;;0.20;;
77457;SDS011;66541;49.346;8.648;2023-05-10T11:54:37;1.70;;;0.30;;
77457;SDS011;66541;49.346;8.648;2023-05-10T11:57:10;2.75;;;0.40;;
77457;SDS011;66541;49.346;8.648;2023-05-10T11:59:36;2.33;;;0.22;;
77457;SDS011;66541;49.346;8.648;2023-05-10T12:02:01;3.50;;;0.20;;
77457;SDS011;66541;49.346;8.648;2023-05-10T12:04:28;3.72;;;0.57;;
77457;SDS011;66541;49.346;8.648;2023-05-10T12:06:54;3.67;;;0.55;;
77457;SDS011;66541;49.346;8.648;2023-05-10T12:09:19;2.83;;;0.47;;
77457;SDS011;66541;49.346;8.648;2023-05-10T12:11:45;2.60;;;0.20;;
77457;SDS011;66541;49.346;8.648;2023-05-10T12:14:10;4.55;;;0.43;;
77457;SDS011;66541;49.346;8.648;2023-05-10T12:16:36;1.63;;;0.22;;
77457;SDS011;66541;49.346;8.648;2023-05-10T12:19:01;1.38;;;0.30;;
77457;SDS011;66541;49.346;8.648;2023-05-10T12:21:27;2.22;;;0.40;;
77457;SDS011;66541;49.346;8.648;2023-05-10T12:23:54;5.13;;;0.30;;
77457;SDS011;66541;49.346;8.648;2023-05-10T12:26:24;1.38;;;0.20;;
77457;SDS011;66541;49.346;8.648;2023-05-10T12:28:52;3.47;;;0.40;;
77457;SDS011;66541;49.346;8.648;2023-05-10T12:31:18;2.88;;;0.30;;
77457;SDS011;66541;49.346;8.648;2023-05-10T12:33:43;2.58;;;0.30;;
77457;SDS011;66541;49.346;8.648;2023-05-10T12:36:10;1.23;;;0.38;;
77457;SDS011;66541;49.346;8.648;2023-05-10T12:38:37;1.30;;;0.20;;
77457;SDS011;66541;49.346;8.648;2023-05-10T12:41:07;2.03;;;0.28;;
77457;SDS011;66541;49.346;8.648;2023-05-10T12:43:43;1.58;;;0.30;;
77457;SDS011;66541;49.346;8.648;2023-05-10T12:46:12;1.40;;;0.30;;
77457;SDS011;66541;49.346;8.648;2023-05-10T12:48:39;3.33;;;0.30;;
77457;SDS011;66541;49.346;8.648;2023-05-10T12:51:05;2.83;;;0.20;;
77457;SDS011;66541;49.346;8.648;2023-05-10T12:53:34;2.92;;;0.30;;
77457;SDS011;66541;49.346;8.648;2023-05-10T12:55:59;1.83;;;0.30;;
77457;SDS011;66541;49.346;8.648;2023-05-10T12:58:24;2.20;;;0.20;;
77457;SDS011;66541;49.346;8.648;2023-05-10T13:00:50;2.67;;;0.28;;
77457;SDS011;66541;49.346;8.648;2023-05-10T13:03:16;2.08;;;0.30;;
77457;SDS011;66541;49.346;8.648;2023-05-10T13:05:41;1.83;;;0.40;;
77457;SDS011;66541;49.346;8.648;2023-05-10T13:08:07;2.42;;;0.40;;
77457;SDS011;66541;49.346;8.648;2023-05-10T13:10:32;1.35;;;0.30;;
77457;SDS011;66541;49.346;8.648;2023-05-10T13:12:58;1.73;;;0.30;;
77457;SDS011;66541;49.346;8.648;2023-05-10T13:15:23;2.03;;;0.30;;
77457;SDS011;66541;49.346;8.648;2023-05-10T13:17:49;3.38;;;0.32;;
77457;SDS011;66541;49.346;8.648;2023-05-10T13:20:14;3.65;;;0.40;;
77457;SDS011;66541;49.346;8.648;2023-05-10T13:22:40;3.63;;;0.40;;
77457;SDS011;66541;49.346;8.648;2023-05-10T13:25:06;2.80;;;0.32;;
77457;SDS011;66541;49.346;8.648;2023-05-10T13:27:32;2.13;;;0.25;;
77457;SDS011;66541;49.346;8.648;2023-05-10T13:29:57;2.15;;;0.30;;
77457;SDS011;66541;49.346;8.648;2023-05-10T13:32:24;1.67;;;0.30;;
77457;SDS011;66541;49.346;8.648;2023-05-10T13:34:49;3.42;;;0.32;;
77457;SDS011;66541;49.346;8.648;2023-05-10T13:37:15;1.75;;;0.20;;
77457;SDS011;66541;49.346;8.648;2023-05-10T13:39:40;2.03;;;0.30;;
77457;SDS011;66541;49.346;8.648;2023-05-10T13:42:05;1.58;;;0.28;;
77457;SDS011;66541;49.346;8.648;2023-05-10T13:44:31;1.88;;;0.28;;
77457;SDS011;66541;49.346;8.648;2023-05-10T13:46:58;3.65;;;0.30;;
77457;SDS011;66541;49.346;8.648;2023-05-10T13:49:23;2.55;;;0.30;;
77457;SDS011;66541;49.346;8.648;2023-05-10T13:51:49;3.10;;;0.25;;
77457;SDS011;66541;49.346;8.648;2023-05-10T13:54:14;1.33;;;0.20;;
77457;SDS011;66541;49.346;8.648;2023-05-10T13:56:39;1.65;;;0.30;;
77457;SDS011;66541;49.346;8.648;2023-05-10T13:59:07;1.95;;;0.20;;
77457;SDS011;66541;49.346;8.648;2023-05-10T14:01:32;1.75;;;0.20;;
77457;SDS011;66541;49.346;8.648;2023-05-10T14:03:58;1.98;;;0.20;;
77457;SDS011;66541;49.346;8.648;2023-05-10T14:06:23;1.00;;;0.10;;
77457;SDS011;66541;49.346;8.648;2023-05-10T14:08:48;2.75;;;0.43;;
77457;SDS011;66541;49.346;8.648;2023-05-10T14:11:14;1.08;;;0.20;;
77457;SDS011;66541;49.346;8.648;2023-05-10T14:13:39;1.10;;;0.20;;
77457;SDS011;66541;49.346;8.648;2023-05-10T14:16:04;1.73;;;0.20;;
77457;SDS011;66541;49.346;8.648;2023-05-10T14:18:30;2.08;;;0.20;;
77457;SDS011;66541;49.346;8.648;2023-05-10T14:20:55;2.60;;;0.30;;
77457;SDS011;66541;49.346;8.648;2023-05-10T14:23:21;2.28;;;0.20;;
77457;SDS011;66541;49.346;8.648;2023-05-10T14:25:51;0.85;;;0.20;;
77457;SDS011;66541;49.346;8.648;2023-05-10T14:28:16;1.95;;;0.20;;
77457;SDS011;66541;49.346;8.648;2023-05-10T14:30:43;0.82;;;0.20;;
77457;SDS011;66541;49.346;8.648;2023-05-10T14:33:08;0.85;;;0.20;;
77457;SDS011;66541;49.346;8.648;2023-05-10T14:35:33;1.52;;;0.20;;
77457;SDS011;66541;49.346;8.648;2023-05-10T14:37:59;0.43;;;0.10;;
77457;SDS011;66541;49.346;8.648;2023-05-10T14:40:24;0.90;;;0.17;;
77457;SDS011;66541;49.346;8.648;2023-05-10T14:42:50;1.45;;;0.10;;
77457;SDS011;66541;49.346;8.648;2023-05-10T14:45:15;1.95;;;0.20;;
77457;SDS011;66541;49.346;8.648;2023-05-10T14:47:40;1.40;;;0.20;;
77457;SDS011;66541;49.346;8.648;2023-05-10T14:50:06;1.73;;;0.20;;
77457;SDS011;66541;49.346;8.648;2023-05-10T14:52:31;3.03;;;0.28;;
77457;SDS011;66541;49.346;8.648;2023-05-10T14:54:57;0.30;;;0.10;;
77457;SDS011;66541;49.346;8.648;2023-05-10T14:57:23;1.88;;;0.17;;
77457;SDS011;66541;49.346;8.648;2023-05-10T14:59:49;0.70;;;0.10;;
77457;SDS011;66541;49.346;8.648;2023-05-10T15:02:14;1.08;;;0.10;;
77457;SDS011;66541;49.346;8.648;2023-05-10T15:04:40;1.35;;;0.20;;
77457;SDS011;66541;49.346;8.648;2023-05-10T15:07:05;0.70;;;0.20;;
77457;SDS011;66541;49.346;8.648;2023-05-10T15:09:30;1.20;;;0.20;;
77457;SDS011;66541;49.346;8.648;2023-05-10T15:11:56;0.47;;;0.10;;
77457;SDS011;66541;49.346;8.648;2023-05-10T15:14:21;1.77;;;0.30;;
77457;SDS011;66541;49.346;8.648;2023-05-10T15:16:47;0.80;;;0.10;;
77457;SDS011;66541;49.346;8.648;2023-05-10T15:19:12;1.15;;;0.20;;
77457;SDS011;66541;49.346;8.648;2023-05-10T15:21:37;0.98;;;0.10;;
77457;SDS011;66541;49.346;8.648;2023-05-10T15:24:07;1.88;;;0.20;;
77457;SDS011;66541;49.346;8.648;2023-05-10T15:26:32;1.38;;;0.20;;
77457;SDS011;66541;49.346;8.648;2023-05-10T15:28:57;0.40;;;0.10;;
77457;SDS011;66541;49.346;8.648;2023-05-10T15:31:23;0.50;;;0.10;;
77457;SDS011;66541;49.346;8.648;2023-05-10T15:33:48;0.63;;;0.10;;